sensor_id;sensor_type;location;lat;lon;timestamp;P1;durP1;ratioP1;P2;durP2;ratioP2
44197;SDS011;30157;55.512;37.764;2023-04-30T00:01:43;11.18;;;6.75;;
44197;SDS011;30157;55.512;37.764;2023-04-30T00:04:09;12.38;;;6.95;;
44197;SDS011;30157;55.512;37.764;2023-04-30T00:06:35;12.05;;;7.22;;
44197;SDS011;30157;55.512;37.764;2023-04-30T00:09:01;13.20;;;7.05;;
44197;SDS011;30157;55.512;37.764;2023-04-30T00:11:27;12.27;;;7.30;;
44197;SDS011;30157;55.512;37.764;2023-04-30T00:13:52;12.55;;;7.43;;
44197;SDS011;30157;55.512;37.764;2023-04-30T00:16:18;13.90;;;7.20;;
44197;SDS011;30157;55.512;37.764;2023-04-30T00:18:44;11.15;;;7.10;;
44197;SDS011;30157;55.512;37.764;2023-04-30T00:21:10;10.43;;;7.18;;
44197;SDS011;30157;55.512;37.764;2023-04-30T00:23:36;10.40;;;6.97;;
44197;SDS011;30157;55.512;37.764;2023-04-30T00:26:02;13.15;;;7.90;;
44197;SDS011;30157;55.512;37.764;2023-04-30T00:28:27;11.05;;;7.25;;
44197;SDS011;30157;55.512;37.764;2023-04-30T00:30:53;13.20;;;7.63;;
44197;SDS011;30157;55.512;37.764;2023-04-30T00:33:19;11.77;;;7.50;;
44197;SDS011;30157;55.512;37.764;2023-04-30T00:35:45;11.38;;;7.25;;
44197;SDS011;30157;55.512;37.764;2023-04-30T00:38:11;13.40;;;7.53;;
44197;SDS011;30157;55.512;37.764;2023-04-30T00:40:37;10.90;;;7.13;;
44197;SDS011;30157;55.512;37.764;2023-04-30T00:43:05;12.95;;;7.75;;
44197;SDS011;30157;55.512;37.764;2023-04-30T00:45:31;9.75;;;7.18;;
44197;SDS011;30157;55.512;37.764;2023-04-30T00:47:57;12.98;;;8.23;;
44197;SDS011;30157;55.512;37.764;2023-04-30T00:50:23;11.25;;;6.93;;
44197;SDS011;30157;55.512;37.764;2023-04-30T00:52:49;10.73;;;7.38;;
44197;SDS011;30157;55.512;37.764;2023-04-30T00:55:15;12.07;;;7.82;;
44197;SDS011;30157;55.512;37.764;2023-04-30T00:57:41;10.77;;;7.45;;
44197;SDS011;30157;55.512;37.764;2023-04-30T01:00:07;12.20;;;7.57;;
44197;SDS011;30157;55.512;37.764;2023-04-30T01:02:36;13.30;;;7.57;;
44197;SDS011;30157;55.512;37.764;2023-04-30T01:05:03;9.93;;;7.07;;
44197;SDS011;30157;55.512;37.764;2023-04-30T01:07:30;11.85;;;7.40;;
44197;SDS011;30157;55.512;37.764;2023-04-30T01:09:56;10.57;;;7.00;;
44197;SDS011;30157;55.512;37.764;2023-04-30T01:15:14;11.80;;;7.15;;
44197;SDS011;30157;55.512;37.764;2023-04-30T01:18:22;11.75;;;7.85;;
44197;SDS011;30157;55.512;37.764;2023-04-30T01:20:53;14.95;;;7.25;;
44197;SDS011;30157;55.512;37.764;2023-04-30T01:29:31;12.30;;;7.82;;
44197;SDS011;30157;55.512;37.764;2023-04-30T01:31:59;11.38;;;7.32;;
44197;SDS011;30157;55.512;37.764;2023-04-30T01:34:26;9.60;;;6.85;;
44197;SDS011;30157;55.512;37.764;2023-04-30T01:39:28;15.68;;;7.20;;
44197;SDS011;30157;55.512;37.764;2023-04-30T01:52:50;10.07;;;7.20;;
44197;SDS011;30157;55.512;37.764;2023-04-30T01:55:23;12.70;;;7.65;;
44197;SDS011;30157;55.512;37.764;2023-04-30T01:57:59;11.23;;;7.45;;
44197;SDS011;30157;55.512;37.764;2023-04-30T02:00:28;11.73;;;7.32;;
44197;SDS011;30157;55.512;37.764;2023-04-30T02:02:57;10.82;;;7.25;;
44197;SDS011;30157;55.512;37.764;2023-04-30T02:05:24;12.43;;;7.18;;
44197;SDS011;30157;55.512;37.764;2023-04-30T02:07:50;12.85;;;8.00;;
44197;SDS011;30157;55.512;37.764;2023-04-30T02:10:17;11.43;;;7.35;;
44197;SDS011;30157;55.512;37.764;2023-04-30T02:12:46;12.68;;;7.65;;
44197;SDS011;30157;55.512;37.764;2023-04-30T02:15:14;11.23;;;8.25;;
44197;SDS011;30157;55.512;37.764;2023-04-30T02:17:40;13.40;;;8.50;;
44197;SDS011;30157;55.512;37.764;2023-04-30T02:20:06;14.13;;;8.63;;
44197;SDS011;30157;55.512;37.764;2023-04-30T02:22:33;16.73;;;9.00;;
44197;SDS011;30157;55.512;37.764;2023-04-30T02:24:59;12.18;;;8.80;;
44197;SDS011;30157;55.512;37.764;2023-04-30T02:27:25;12.95;;;8.20;;
44197;SDS011;30157;55.512;37.764;2023-04-30T02:29:52;12.88;;;8.30;;
44197;SDS011;30157;55.512;37.764;2023-04-30T02:32:18;12.25;;;8.05;;
44197;SDS011;30157;55.512;37.764;2023-04-30T02:34:44;10.23;;;7.30;;
44197;SDS011;30157;55.512;37.764;2023-04-30T02:37:10;13.15;;;8.30;;
44197;SDS011;30157;55.512;37.764;2023-04-30T02:39:36;11.02;;;7.78;;
44197;SDS011;30157;55.512;37.764;2023-04-30T02:42:02;12.77;;;8.70;;
44197;SDS011;30157;55.512;37.764;2023-04-30T02:44:29;12.10;;;8.48;;
44197;SDS011;30157;55.512;37.764;2023-04-30T02:46:55;13.02;;;7.32;;
44197;SDS011;30157;55.512;37.764;2023-04-30T02:49:22;9.73;;;7.10;;
44197;SDS011;30157;55.512;37.764;2023-04-30T02:51:48;11.63;;;7.25;;
44197;SDS011;30157;55.512;37.764;2023-04-30T02:54:13;12.95;;;7.85;;
44197;SDS011;30157;55.512;37.764;2023-04-30T02:56:39;11.82;;;7.65;;
44197;SDS011;30157;55.512;37.764;2023-04-30T02:59:05;9.43;;;7.40;;
44197;SDS011;30157;55.512;37.764;2023-04-30T03:01:31;15.02;;;9.23;;
44197;SDS011;30157;55.512;37.764;2023-04-30T03:03:57;19.75;;;11.35;;
44197;SDS011;30157;55.512;37.764;2023-04-30T03:06:23;38.00;;;18.50;;
44197;SDS011;30157;55.512;37.764;2023-04-30T03:08:49;51.10;;;22.10;;
44197;SDS011;30157;55.512;37.764;2023-04-30T03:11:15;22.60;;;11.63;;
44197;SDS011;30157;55.512;37.764;2023-04-30T03:13:42;15.90;;;9.40;;
44197;SDS011;30157;55.512;37.764;2023-04-30T03:16:09;12.20;;;7.85;;
44197;SDS011;30157;55.512;37.764;2023-04-30T03:18:35;13.02;;;8.65;;
44197;SDS011;30157;55.512;37.764;2023-04-30T03:21:01;9.75;;;7.35;;
44197;SDS011;30157;55.512;37.764;2023-04-30T03:23:27;13.77;;;8.18;;
44197;SDS011;30157;55.512;37.764;2023-04-30T03:25:53;9.05;;;7.00;;
44197;SDS011;30157;55.512;37.764;2023-04-30T03:28:19;11.85;;;7.13;;
44197;SDS011;30157;55.512;37.764;2023-04-30T03:30:45;11.77;;;6.90;;
44197;SDS011;30157;55.512;37.764;2023-04-30T03:33:11;11.05;;;7.00;;
44197;SDS011;30157;55.512;37.764;2023-04-30T03:35:36;10.82;;;7.45;;
44197;SDS011;30157;55.512;37.764;2023-04-30T03:38:02;13.93;;;7.63;;
44197;SDS011;30157;55.512;37.764;2023-04-30T03:40:29;11.32;;;7.32;;
44197;SDS011;30157;55.512;37.764;2023-04-30T03:42:54;11.38;;;7.38;;
44197;SDS011;30157;55.512;37.764;2023-04-30T03:45:20;12.60;;;8.00;;
44197;SDS011;30157;55.512;37.764;2023-04-30T03:47:46;13.32;;;8.70;;
44197;SDS011;30157;55.512;37.764;2023-04-30T03:50:14;13.88;;;8.10;;
44197;SDS011;30157;55.512;37.764;2023-04-30T03:52:42;14.27;;;9.05;;
44197;SDS011;30157;55.512;37.764;2023-04-30T03:55:09;11.25;;;8.52;;
44197;SDS011;30157;55.512;37.764;2023-04-30T03:57:35;12.50;;;9.10;;
44197;SDS011;30157;55.512;37.764;2023-04-30T04:00:03;15.20;;;9.80;;
44197;SDS011;30157;55.512;37.764;2023-04-30T04:02:39;12.80;;;8.98;;
44197;SDS011;30157;55.512;37.764;2023-04-30T04:05:08;11.30;;;8.95;;
44197;SDS011;30157;55.512;37.764;2023-04-30T04:07:35;13.65;;;9.10;;
44197;SDS011;30157;55.512;37.764;2023-04-30T04:10:00;11.23;;;9.48;;
44197;SDS011;30157;55.512;37.764;2023-04-30T04:12:30;12.52;;;9.38;;
44197;SDS011;30157;55.512;37.764;2023-04-30T04:14:56;15.23;;;9.57;;
44197;SDS011;30157;55.512;37.764;2023-04-30T04:17:23;12.90;;;9.05;;
44197;SDS011;30157;55.512;37.764;2023-04-30T04:19:48;14.95;;;9.63;;
44197;SDS011;30157;55.512;37.764;2023-04-30T04:22:16;14.32;;;10.02;;
44197;SDS011;30157;55.512;37.764;2023-04-30T04:24:42;13.65;;;9.48;;
44197;SDS011;30157;55.512;37.764;2023-04-30T04:27:11;11.77;;;9.07;;
44197;SDS011;30157;55.512;37.764;2023-04-30T04:29:37;14.57;;;9.73;;
44197;SDS011;30157;55.512;37.764;2023-04-30T04:32:02;12.43;;;9.23;;
44197;SDS011;30157;55.512;37.764;2023-04-30T04:34:31;11.45;;;8.13;;
44197;SDS011;30157;55.512;37.764;2023-04-30T04:36:57;12.30;;;8.48;;
44197;SDS011;30157;55.512;37.764;2023-04-30T04:39:23;13.38;;;7.57;;
44197;SDS011;30157;55.512;37.764;2023-04-30T04:41:49;11.07;;;7.35;;
44197;SDS011;30157;55.512;37.764;2023-04-30T04:44:15;11.50;;;7.30;;
44197;SDS011;30157;55.512;37.764;2023-04-30T04:46:41;10.23;;;6.80;;
44197;SDS011;30157;55.512;37.764;2023-04-30T04:49:08;9.40;;;6.15;;
44197;SDS011;30157;55.512;37.764;2023-04-30T04:51:34;10.38;;;6.32;;
44197;SDS011;30157;55.512;37.764;2023-04-30T04:54:00;9.30;;;6.53;;
44197;SDS011;30157;55.512;37.764;2023-04-30T04:56:26;10.15;;;6.78;;
44197;SDS011;30157;55.512;37.764;2023-04-30T04:58:52;8.48;;;5.57;;
44197;SDS011;30157;55.512;37.764;2023-04-30T05:01:17;8.52;;;6.00;;
44197;SDS011;30157;55.512;37.764;2023-04-30T05:03:45;9.73;;;6.20;;
44197;SDS011;30157;55.512;37.764;2023-04-30T05:06:12;7.45;;;5.85;;
44197;SDS011;30157;55.512;37.764;2023-04-30T05:08:38;8.93;;;6.18;;
44197;SDS011;30157;55.512;37.764;2023-04-30T05:11:03;8.63;;;6.03;;
44197;SDS011;30157;55.512;37.764;2023-04-30T05:13:29;8.73;;;5.90;;
44197;SDS011;30157;55.512;37.764;2023-04-30T05:15:55;11.02;;;6.10;;
44197;SDS011;30157;55.512;37.764;2023-04-30T05:18:24;7.95;;;5.97;;
44197;SDS011;30157;55.512;37.764;2023-04-30T05:20:49;9.50;;;5.80;;
44197;SDS011;30157;55.512;37.764;2023-04-30T05:23:15;8.88;;;6.10;;
44197;SDS011;30157;55.512;37.764;2023-04-30T05:25:41;6.43;;;5.20;;
44197;SDS011;30157;55.512;37.764;2023-04-30T05:28:06;5.40;;;4.25;;
44197;SDS011;30157;55.512;37.764;2023-04-30T05:30:32;5.47;;;4.35;;
44197;SDS011;30157;55.512;37.764;2023-04-30T05:32:58;5.13;;;4.03;;
44197;SDS011;30157;55.512;37.764;2023-04-30T05:35:24;7.05;;;4.40;;
44197;SDS011;30157;55.512;37.764;2023-04-30T05:37:49;6.18;;;3.85;;
44197;SDS011;30157;55.512;37.764;2023-04-30T05:40:15;5.38;;;4.32;;
44197;SDS011;30157;55.512;37.764;2023-04-30T05:42:41;6.93;;;4.47;;
44197;SDS011;30157;55.512;37.764;2023-04-30T05:45:11;7.22;;;5.05;;
44197;SDS011;30157;55.512;37.764;2023-04-30T05:47:39;6.32;;;4.72;;
44197;SDS011;30157;55.512;37.764;2023-04-30T05:50:05;9.30;;;5.03;;
44197;SDS011;30157;55.512;37.764;2023-04-30T05:52:32;7.32;;;4.63;;
44197;SDS011;30157;55.512;37.764;2023-04-30T05:54:58;7.13;;;4.85;;
44197;SDS011;30157;55.512;37.764;2023-04-30T05:57:23;8.00;;;5.00;;
44197;SDS011;30157;55.512;37.764;2023-04-30T05:59:49;8.13;;;5.03;;
44197;SDS011;30157;55.512;37.764;2023-04-30T06:02:15;6.68;;;4.50;;
44197;SDS011;30157;55.512;37.764;2023-04-30T06:04:40;8.45;;;4.93;;
44197;SDS011;30157;55.512;37.764;2023-04-30T06:07:06;5.68;;;4.30;;
44197;SDS011;30157;55.512;37.764;2023-04-30T06:09:32;5.82;;;4.63;;
44197;SDS011;30157;55.512;37.764;2023-04-30T06:11:58;7.88;;;4.90;;
44197;SDS011;30157;55.512;37.764;2023-04-30T06:14:24;7.22;;;4.57;;
44197;SDS011;30157;55.512;37.764;2023-04-30T06:16:50;7.22;;;5.03;;
44197;SDS011;30157;55.512;37.764;2023-04-30T06:19:16;5.75;;;4.20;;
44197;SDS011;30157;55.512;37.764;2023-04-30T06:21:42;7.88;;;4.00;;
44197;SDS011;30157;55.512;37.764;2023-04-30T06:24:08;4.90;;;3.50;;
44197;SDS011;30157;55.512;37.764;2023-04-30T06:26:34;10.30;;;3.63;;
44197;SDS011;30157;55.512;37.764;2023-04-30T06:29:01;5.35;;;3.10;;
44197;SDS011;30157;55.512;37.764;2023-04-30T06:31:26;4.47;;;2.90;;
44197;SDS011;30157;55.512;37.764;2023-04-30T06:33:52;4.75;;;2.80;;
44197;SDS011;30157;55.512;37.764;2023-04-30T06:36:18;3.65;;;2.60;;
44197;SDS011;30157;55.512;37.764;2023-04-30T06:38:44;4.57;;;3.08;;
44197;SDS011;30157;55.512;37.764;2023-04-30T06:41:11;3.75;;;2.40;;
44197;SDS011;30157;55.512;37.764;2023-04-30T06:43:37;5.05;;;2.28;;
44197;SDS011;30157;55.512;37.764;2023-04-30T06:46:03;3.30;;;1.95;;
44197;SDS011;30157;55.512;37.764;2023-04-30T06:48:31;3.10;;;1.70;;
44197;SDS011;30157;55.512;37.764;2023-04-30T06:50:57;3.25;;;1.50;;
44197;SDS011;30157;55.512;37.764;2023-04-30T06:53:24;1.85;;;1.50;;
44197;SDS011;30157;55.512;37.764;2023-04-30T06:55:50;2.10;;;1.30;;
44197;SDS011;30157;55.512;37.764;2023-04-30T06:58:16;2.63;;;1.45;;
44197;SDS011;30157;55.512;37.764;2023-04-30T07:00:45;2.45;;;1.30;;
44197;SDS011;30157;55.512;37.764;2023-04-30T07:03:11;2.33;;;1.50;;
44197;SDS011;30157;55.512;37.764;2023-04-30T07:05:36;1.75;;;1.20;;
44197;SDS011;30157;55.512;37.764;2023-04-30T07:08:02;4.03;;;1.98;;
44197;SDS011;30157;55.512;37.764;2023-04-30T07:10:29;4.63;;;1.58;;
44197;SDS011;30157;55.512;37.764;2023-04-30T07:12:56;1.38;;;1.10;;
44197;SDS011;30157;55.512;37.764;2023-04-30T07:15:22;2.47;;;1.30;;
44197;SDS011;30157;55.512;37.764;2023-04-30T07:17:48;1.70;;;1.02;;
44197;SDS011;30157;55.512;37.764;2023-04-30T07:20:14;2.13;;;1.40;;
44197;SDS011;30157;55.512;37.764;2023-04-30T07:22:40;1.35;;;1.10;;
44197;SDS011;30157;55.512;37.764;2023-04-30T07:25:09;2.03;;;1.35;;
44197;SDS011;30157;55.512;37.764;2023-04-30T07:27:36;2.13;;;1.30;;
44197;SDS011;30157;55.512;37.764;2023-04-30T07:30:02;1.65;;;1.30;;
44197;SDS011;30157;55.512;37.764;2023-04-30T07:32:33;2.10;;;1.30;;
44197;SDS011;30157;55.512;37.764;2023-04-30T07:34:59;2.40;;;1.30;;
44197;SDS011;30157;55.512;37.764;2023-04-30T07:37:25;1.60;;;1.00;;
44197;SDS011;30157;55.512;37.764;2023-04-30T07:39:51;3.65;;;1.30;;
44197;SDS011;30157;55.512;37.764;2023-04-30T07:42:17;3.58;;;1.23;;
44197;SDS011;30157;55.512;37.764;2023-04-30T07:44:43;1.75;;;1.02;;
44197;SDS011;30157;55.512;37.764;2023-04-30T07:47:09;1.65;;;1.10;;
44197;SDS011;30157;55.512;37.764;2023-04-30T07:49:35;2.78;;;1.30;;
44197;SDS011;30157;55.512;37.764;2023-04-30T07:52:00;2.28;;;1.50;;
44197;SDS011;30157;55.512;37.764;2023-04-30T07:54:26;2.10;;;1.40;;
44197;SDS011;30157;55.512;37.764;2023-04-30T07:56:52;2.95;;;1.23;;
44197;SDS011;30157;55.512;37.764;2023-04-30T07:59:18;2.58;;;1.10;;
44197;SDS011;30157;55.512;37.764;2023-04-30T08:01:46;2.85;;;1.10;;
44197;SDS011;30157;55.512;37.764;2023-04-30T08:04:12;2.13;;;1.38;;
44197;SDS011;30157;55.512;37.764;2023-04-30T08:06:38;5.75;;;1.20;;
44197;SDS011;30157;55.512;37.764;2023-04-30T08:09:06;2.53;;;1.35;;
44197;SDS011;30157;55.512;37.764;2023-04-30T08:11:32;1.63;;;1.13;;
44197;SDS011;30157;55.512;37.764;2023-04-30T08:13:59;2.88;;;1.30;;
44197;SDS011;30157;55.512;37.764;2023-04-30T08:16:27;1.90;;;1.23;;
44197;SDS011;30157;55.512;37.764;2023-04-30T08:18:53;2.13;;;1.30;;
44197;SDS011;30157;55.512;37.764;2023-04-30T08:21:21;2.83;;;1.40;;
44197;SDS011;30157;55.512;37.764;2023-04-30T08:23:46;2.20;;;1.20;;
44197;SDS011;30157;55.512;37.764;2023-04-30T08:26:12;1.60;;;1.10;;
44197;SDS011;30157;55.512;37.764;2023-04-30T08:28:38;3.38;;;1.13;;
44197;SDS011;30157;55.512;37.764;2023-04-30T08:31:04;2.00;;;1.23;;
44197;SDS011;30157;55.512;37.764;2023-04-30T08:33:30;3.03;;;1.42;;
44197;SDS011;30157;55.512;37.764;2023-04-30T08:35:56;2.45;;;1.35;;
44197;SDS011;30157;55.512;37.764;2023-04-30T08:38:23;2.47;;;1.33;;
44197;SDS011;30157;55.512;37.764;2023-04-30T08:40:51;3.58;;;1.67;;
44197;SDS011;30157;55.512;37.764;2023-04-30T08:43:25;2.72;;;1.60;;
44197;SDS011;30157;55.512;37.764;2023-04-30T08:45:51;1.75;;;1.20;;
44197;SDS011;30157;55.512;37.764;2023-04-30T08:48:17;1.88;;;1.30;;
44197;SDS011;30157;55.512;37.764;2023-04-30T08:50:44;2.22;;;1.20;;
44197;SDS011;30157;55.512;37.764;2023-04-30T08:53:10;3.20;;;1.60;;
44197;SDS011;30157;55.512;37.764;2023-04-30T08:55:39;3.40;;;1.50;;
44197;SDS011;30157;55.512;37.764;2023-04-30T08:58:07;2.17;;;1.40;;
44197;SDS011;30157;55.512;37.764;2023-04-30T09:00:34;2.00;;;1.20;;
44197;SDS011;30157;55.512;37.764;2023-04-30T09:03:03;3.22;;;1.25;;
44197;SDS011;30157;55.512;37.764;2023-04-30T09:05:29;2.90;;;1.83;;
44197;SDS011;30157;55.512;37.764;2023-04-30T09:07:55;2.85;;;1.63;;
44197;SDS011;30157;55.512;37.764;2023-04-30T09:10:21;3.47;;;1.45;;
44197;SDS011;30157;55.512;37.764;2023-04-30T09:13:06;3.70;;;1.90;;
44197;SDS011;30157;55.512;37.764;2023-04-30T09:15:34;2.38;;;1.60;;
44197;SDS011;30157;55.512;37.764;2023-04-30T09:18:15;2.45;;;1.40;;
44197;SDS011;30157;55.512;37.764;2023-04-30T09:20:53;4.25;;;1.70;;
44197;SDS011;30157;55.512;37.764;2023-04-30T09:23:26;3.15;;;1.50;;
44197;SDS011;30157;55.512;37.764;2023-04-30T09:25:52;4.07;;;1.50;;
44197;SDS011;30157;55.512;37.764;2023-04-30T09:28:18;2.75;;;1.63;;
44197;SDS011;30157;55.512;37.764;2023-04-30T09:30:50;2.95;;;1.73;;
44197;SDS011;30157;55.512;37.764;2023-04-30T09:33:17;2.92;;;1.67;;
44197;SDS011;30157;55.512;37.764;2023-04-30T09:35:44;2.47;;;1.60;;
44197;SDS011;30157;55.512;37.764;2023-04-30T09:41:06;2.55;;;1.70;;
44197;SDS011;30157;55.512;37.764;2023-04-30T09:43:47;2.15;;;1.60;;
44197;SDS011;30157;55.512;37.764;2023-04-30T09:46:13;3.08;;;1.73;;
44197;SDS011;30157;55.512;37.764;2023-04-30T09:48:42;3.67;;;1.67;;
44197;SDS011;30157;55.512;37.764;2023-04-30T09:51:09;3.63;;;1.50;;
44197;SDS011;30157;55.512;37.764;2023-04-30T09:53:39;2.47;;;1.48;;
44197;SDS011;30157;55.512;37.764;2023-04-30T09:56:07;2.40;;;1.50;;
44197;SDS011;30157;55.512;37.764;2023-04-30T09:58:36;5.25;;;1.85;;
44197;SDS011;30157;55.512;37.764;2023-04-30T10:01:07;3.03;;;1.60;;
44197;SDS011;30157;55.512;37.764;2023-04-30T10:03:37;4.45;;;1.90;;
44197;SDS011;30157;55.512;37.764;2023-04-30T10:06:05;3.42;;;1.70;;
44197;SDS011;30157;55.512;37.764;2023-04-30T10:08:37;3.00;;;1.60;;
44197;SDS011;30157;55.512;37.764;2023-04-30T10:13:36;2.53;;;1.50;;
44197;SDS011;30157;55.512;37.764;2023-04-30T10:16:13;3.60;;;1.80;;
44197;SDS011;30157;55.512;37.764;2023-04-30T10:18:46;3.20;;;1.90;;
44197;SDS011;30157;55.512;37.764;2023-04-30T10:21:16;5.28;;;1.92;;
44197;SDS011;30157;55.512;37.764;2023-04-30T10:23:45;3.50;;;2.10;;
44197;SDS011;30157;55.512;37.764;2023-04-30T10:26:13;3.00;;;1.90;;
44197;SDS011;30157;55.512;37.764;2023-04-30T10:28:41;4.18;;;2.05;;
44197;SDS011;30157;55.512;37.764;2023-04-30T10:31:07;4.18;;;2.65;;
44197;SDS011;30157;55.512;37.764;2023-04-30T10:33:45;4.00;;;2.30;;
44197;SDS011;30157;55.512;37.764;2023-04-30T10:36:46;4.35;;;1.83;;
44197;SDS011;30157;55.512;37.764;2023-04-30T10:39:22;3.80;;;2.45;;
44197;SDS011;30157;55.512;37.764;2023-04-30T10:42:00;3.92;;;2.53;;
44197;SDS011;30157;55.512;37.764;2023-04-30T10:44:28;3.45;;;2.30;;
44197;SDS011;30157;55.512;37.764;2023-04-30T10:46:58;5.38;;;2.15;;
44197;SDS011;30157;55.512;37.764;2023-04-30T10:49:25;3.92;;;2.08;;
44197;SDS011;30157;55.512;37.764;2023-04-30T10:51:51;3.92;;;2.30;;
44197;SDS011;30157;55.512;37.764;2023-04-30T10:54:26;4.63;;;2.60;;
44197;SDS011;30157;55.512;37.764;2023-04-30T10:56:53;3.80;;;2.47;;
44197;SDS011;30157;55.512;37.764;2023-04-30T10:59:34;3.92;;;1.92;;
44197;SDS011;30157;55.512;37.764;2023-04-30T11:02:01;4.47;;;1.95;;
44197;SDS011;30157;55.512;37.764;2023-04-30T11:04:27;2.97;;;1.75;;
44197;SDS011;30157;55.512;37.764;2023-04-30T11:07:07;3.30;;;2.30;;
44197;SDS011;30157;55.512;37.764;2023-04-30T11:09:35;6.93;;;2.38;;
44197;SDS011;30157;55.512;37.764;2023-04-30T11:12:08;3.65;;;2.13;;
44197;SDS011;30157;55.512;37.764;2023-04-30T11:15:00;3.85;;;2.08;;
44197;SDS011;30157;55.512;37.764;2023-04-30T11:17:47;5.68;;;2.13;;
44197;SDS011;30157;55.512;37.764;2023-04-30T11:20:21;3.30;;;2.40;;
44197;SDS011;30157;55.512;37.764;2023-04-30T11:23:06;3.28;;;1.80;;
44197;SDS011;30157;55.512;37.764;2023-04-30T11:25:43;2.97;;;1.95;;
44197;SDS011;30157;55.512;37.764;2023-04-30T11:28:18;3.53;;;2.03;;
44197;SDS011;30157;55.512;37.764;2023-04-30T11:30:55;2.55;;;1.85;;
44197;SDS011;30157;55.512;37.764;2023-04-30T11:33:23;3.97;;;2.25;;
44197;SDS011;30157;55.512;37.764;2023-04-30T11:35:51;2.90;;;1.77;;
44197;SDS011;30157;55.512;37.764;2023-04-30T11:38:19;4.00;;;1.83;;
44197;SDS011;30157;55.512;37.764;2023-04-30T11:40:49;3.38;;;2.00;;
44197;SDS011;30157;55.512;37.764;2023-04-30T11:43:21;4.22;;;2.00;;
44197;SDS011;30157;55.512;37.764;2023-04-30T11:48:30;3.17;;;1.90;;
44197;SDS011;30157;55.512;37.764;2023-04-30T11:51:03;4.15;;;2.08;;
44197;SDS011;30157;55.512;37.764;2023-04-30T11:53:45;3.67;;;2.10;;
44197;SDS011;30157;55.512;37.764;2023-04-30T11:56:13;5.13;;;2.22;;
44197;SDS011;30157;55.512;37.764;2023-04-30T11:58:42;4.95;;;2.40;;
44197;SDS011;30157;55.512;37.764;2023-04-30T12:01:10;2.83;;;2.08;;
44197;SDS011;30157;55.512;37.764;2023-04-30T12:03:40;4.22;;;2.58;;
44197;SDS011;30157;55.512;37.764;2023-04-30T12:06:21;4.55;;;2.75;;
44197;SDS011;30157;55.512;37.764;2023-04-30T12:08:52;2.83;;;1.90;;
44197;SDS011;30157;55.512;37.764;2023-04-30T12:11:20;4.75;;;2.85;;
44197;SDS011;30157;55.512;37.764;2023-04-30T12:14:11;4.43;;;2.50;;
44197;SDS011;30157;55.512;37.764;2023-04-30T12:16:47;4.35;;;2.63;;
44197;SDS011;30157;55.512;37.764;2023-04-30T12:19:16;3.08;;;2.08;;
44197;SDS011;30157;55.512;37.764;2023-04-30T12:21:42;4.05;;;2.55;;
44197;SDS011;30157;55.512;37.764;2023-04-30T12:24:11;4.00;;;2.13;;
44197;SDS011;30157;55.512;37.764;2023-04-30T12:26:41;3.90;;;2.20;;
44197;SDS011;30157;55.512;37.764;2023-04-30T12:29:11;4.30;;;2.00;;
44197;SDS011;30157;55.512;37.764;2023-04-30T12:31:39;3.95;;;2.30;;
44197;SDS011;30157;55.512;37.764;2023-04-30T12:34:06;3.35;;;2.30;;
44197;SDS011;30157;55.512;37.764;2023-04-30T12:36:36;4.97;;;2.40;;
44197;SDS011;30157;55.512;37.764;2023-04-30T12:39:10;3.40;;;2.50;;
44197;SDS011;30157;55.512;37.764;2023-04-30T12:41:44;3.45;;;2.42;;
44197;SDS011;30157;55.512;37.764;2023-04-30T12:44:21;5.03;;;2.50;;
44197;SDS011;30157;55.512;37.764;2023-04-30T12:46:50;3.58;;;2.30;;
44197;SDS011;30157;55.512;37.764;2023-04-30T12:49:28;4.50;;;2.70;;
44197;SDS011;30157;55.512;37.764;2023-04-30T12:52:13;4.50;;;2.72;;
44197;SDS011;30157;55.512;37.764;2023-04-30T12:54:39;6.95;;;2.20;;
44197;SDS011;30157;55.512;37.764;2023-04-30T12:57:07;3.97;;;2.20;;
44197;SDS011;30157;55.512;37.764;2023-04-30T12:59:38;3.83;;;2.38;;
44197;SDS011;30157;55.512;37.764;2023-04-30T13:02:23;4.57;;;2.60;;
44197;SDS011;30157;55.512;37.764;2023-04-30T13:04:51;3.92;;;2.50;;
44197;SDS011;30157;55.512;37.764;2023-04-30T13:07:18;4.70;;;2.30;;
44197;SDS011;30157;55.512;37.764;2023-04-30T13:09:44;4.90;;;2.33;;
44197;SDS011;30157;55.512;37.764;2023-04-30T13:12:10;5.90;;;2.60;;
44197;SDS011;30157;55.512;37.764;2023-04-30T13:14:36;4.57;;;2.33;;
44197;SDS011;30157;55.512;37.764;2023-04-30T13:17:02;4.20;;;2.17;;
44197;SDS011;30157;55.512;37.764;2023-04-30T13:19:31;4.13;;;2.08;;
44197;SDS011;30157;55.512;37.764;2023-04-30T13:21:57;3.83;;;2.20;;
44197;SDS011;30157;55.512;37.764;2023-04-30T13:24:26;3.95;;;2.15;;
44197;SDS011;30157;55.512;37.764;2023-04-30T13:26:52;3.42;;;2.50;;
44197;SDS011;30157;55.512;37.764;2023-04-30T13:29:18;7.88;;;3.45;;
44197;SDS011;30157;55.512;37.764;2023-04-30T13:31:45;6.75;;;4.55;;
44197;SDS011;30157;55.512;37.764;2023-04-30T13:34:13;7.82;;;4.47;;
44197;SDS011;30157;55.512;37.764;2023-04-30T13:36:40;7.22;;;4.25;;
44197;SDS011;30157;55.512;37.764;2023-04-30T13:39:06;8.13;;;4.38;;
44197;SDS011;30157;55.512;37.764;2023-04-30T13:41:32;7.55;;;3.63;;
44197;SDS011;30157;55.512;37.764;2023-04-30T13:43:58;5.55;;;3.40;;
44197;SDS011;30157;55.512;37.764;2023-04-30T13:46:24;6.18;;;2.78;;
44197;SDS011;30157;55.512;37.764;2023-04-30T13:48:50;5.22;;;3.17;;
44197;SDS011;30157;55.512;37.764;2023-04-30T13:51:18;5.93;;;2.88;;
44197;SDS011;30157;55.512;37.764;2023-04-30T13:53:44;3.67;;;2.65;;
44197;SDS011;30157;55.512;37.764;2023-04-30T13:56:10;4.70;;;2.47;;
44197;SDS011;30157;55.512;37.764;2023-04-30T13:58:37;4.20;;;2.60;;
44197;SDS011;30157;55.512;37.764;2023-04-30T14:01:04;5.25;;;2.88;;
44197;SDS011;30157;55.512;37.764;2023-04-30T14:03:30;3.22;;;2.40;;
44197;SDS011;30157;55.512;37.764;2023-04-30T14:05:56;5.07;;;2.70;;
44197;SDS011;30157;55.512;37.764;2023-04-30T14:08:25;4.82;;;2.45;;
44197;SDS011;30157;55.512;37.764;2023-04-30T14:10:51;5.38;;;2.70;;
44197;SDS011;30157;55.512;37.764;2023-04-30T14:13:17;3.22;;;2.30;;
44197;SDS011;30157;55.512;37.764;2023-04-30T14:15:43;4.63;;;2.60;;
44197;SDS011;30157;55.512;37.764;2023-04-30T14:18:08;4.88;;;2.75;;
44197;SDS011;30157;55.512;37.764;2023-04-30T14:20:34;4.22;;;2.78;;
44197;SDS011;30157;55.512;37.764;2023-04-30T14:23:00;6.32;;;2.80;;
44197;SDS011;30157;55.512;37.764;2023-04-30T14:25:26;4.10;;;2.90;;
44197;SDS011;30157;55.512;37.764;2023-04-30T14:27:52;5.53;;;2.92;;
44197;SDS011;30157;55.512;37.764;2023-04-30T14:30:20;6.40;;;3.03;;
44197;SDS011;30157;55.512;37.764;2023-04-30T14:32:45;6.60;;;2.92;;
44197;SDS011;30157;55.512;37.764;2023-04-30T14:35:11;4.65;;;3.00;;
44197;SDS011;30157;55.512;37.764;2023-04-30T14:37:37;4.55;;;2.75;;
44197;SDS011;30157;55.512;37.764;2023-04-30T14:40:03;4.47;;;2.75;;
44197;SDS011;30157;55.512;37.764;2023-04-30T14:42:31;6.40;;;3.08;;
44197;SDS011;30157;55.512;37.764;2023-04-30T14:44:58;4.38;;;2.72;;
44197;SDS011;30157;55.512;37.764;2023-04-30T14:47:24;6.57;;;3.13;;
44197;SDS011;30157;55.512;37.764;2023-04-30T14:49:52;3.85;;;2.60;;
44197;SDS011;30157;55.512;37.764;2023-04-30T14:52:18;3.40;;;2.58;;
44197;SDS011;30157;55.512;37.764;2023-04-30T14:54:44;4.90;;;2.90;;
44197;SDS011;30157;55.512;37.764;2023-04-30T14:57:10;4.50;;;3.00;;
44197;SDS011;30157;55.512;37.764;2023-04-30T14:59:35;5.05;;;2.83;;
44197;SDS011;30157;55.512;37.764;2023-04-30T15:02:04;4.40;;;2.90;;
44197;SDS011;30157;55.512;37.764;2023-04-30T15:04:30;5.95;;;3.17;;
44197;SDS011;30157;55.512;37.764;2023-04-30T15:06:56;4.80;;;3.15;;